Time;durP1;ratioP1;P1;durP2;ratioP2;P2;SDS_P1;SDS_P2;PMS_P1;PMS_P2;Temp;Humidity;BMP_temperature;BMP_pressure;BME280_temperature;BME280_humidity;BME280_pressure;Samples;Min_cycle;Max_cycle;Signal;HPM_P1;HPM_P2
2022/05/17 00:01:03;;;;;;;0.00;0.00;;;15.60;99.90;;;;;;5037166;28;20060;-78
2022/05/17 00:03:29;;;;;;;0.00;0.00;;;15.60;99.90;;;;;;5052457;28;20055;-77
2022/05/17 00:05:55;;;;;;;0.00;0.00;;;15.70;99.90;;;;;;5036704;28;20041;-77
2022/05/17 00:08:21;;;;;;;0.00;0.00;;;15.60;99.90;;;;;;5053429;28;20045;-78
2022/05/17 00:10:47;;;;;;;0.00;0.00;;;15.60;99.90;;;;;;5036536;28;20056;-78
2022/05/17 00:13:13;;;;;;;0.20;0.13;;;15.60;99.90;;;;;;5036696;28;20055;-77
2022/05/17 00:15:42;;;;;;;0.03;0.03;;;15.60;99.90;;;;;;5053439;28;20132;-78
2022/05/17 00:18:11;;;;;;;0.47;0.30;;;15.60;99.90;;;;;;5052966;28;20062;-78
2022/05/17 00:20:37;;;;;;;0.00;0.00;;;15.50;99.90;;;;;;5037208;28;20049;-77
2022/05/17 00:23:03;;;;;;;0.00;0.00;;;15.50;99.90;;;;;;5036438;28;20055;-77
2022/05/17 00:25:29;;;;;;;0.00;0.00;;;15.50;99.90;;;;;;5053148;28;20487;-78
2022/05/17 00:27:55;;;;;;;0.10;0.00;;;15.50;99.90;;;;;;5052878;28;20045;-78
2022/05/17 00:30:20;;;;;;;0.00;0.00;;;15.50;99.90;;;;;;5036226;28;20101;-78
2022/05/17 00:32:46;;;;;;;0.00;0.00;;;15.50;99.90;;;;;;5053036;28;20045;-78
2022/05/17 00:35:12;;;;;;;0.10;0.10;;;15.50;99.90;;;;;;5052956;28;20041;-78
2022/05/17 00:37:37;;;;;;;1.30;0.52;;;15.40;99.90;;;;;;5052898;28;20053;-78
2022/05/17 00:40:05;;;;;;;1.73;0.55;;;15.40;99.90;;;;;;5036327;28;20049;-78
2022/05/17 00:42:31;;;;;;;0.00;0.00;;;15.30;99.90;;;;;;5036275;28;20049;-78
2022/05/17 00:44:56;;;;;;;0.20;0.20;;;15.40;99.90;;;;;;5052371;28;20051;-78
2022/05/17 00:47:48;;;;;;;0.20;0.00;;;15.30;99.90;;;;;;5052360;28;20061;-78
2022/05/17 00:50:30;;;;;;;0.00;0.00;;;15.30;99.90;;;;;;5036648;28;20409;-78
2022/05/17 00:53:04;;;;;;;0.10;0.00;;;15.20;99.90;;;;;;5052873;28;20044;-78
2022/05/17 00:55:38;;;;;;;0.10;0.10;;;15.20;99.90;;;;;;5036062;28;20060;-78
2022/05/17 00:58:28;;;;;;;0.30;0.30;;;15.20;99.90;;;;;;5053508;28;20084;-78
2022/05/17 01:01:07;;;;;;;0.25;0.10;;;15.20;99.90;;;;;;5052808;28;20045;-78
2022/05/17 01:03:55;;;;;;;0.00;0.00;;;15.10;99.90;;;;;;5052665;28;20045;-78
2022/05/17 01:06:23;;;;;;;0.00;0.00;;;15.20;99.90;;;;;;5035758;28;20049;-78
2022/05/17 01:08:50;;;;;;;0.00;0.00;;;15.10;99.90;;;;;;5052512;28;20045;-77
2022/05/17 01:11:16;;;;;;;0.00;0.00;;;15.00;99.90;;;;;;5052579;28;20378;-77
2022/05/17 01:16:27;;;;;;;0.00;0.00;;;15.10;99.90;;;;;;5056540;28;20095;-78
2022/05/17 01:18:53;;;;;;;0.00;0.00;;;15.10;99.90;;;;;;5056853;28;20481;-78
2022/05/17 01:21:19;;;;;;;0.00;0.00;;;15.00;99.90;;;;;;5056588;28;20037;-78
2022/05/17 01:23:45;;;;;;;0.30;0.30;;;15.00;99.90;;;;;;5056572;28;20064;-77
2022/05/17 01:26:17;;;;;;;0.65;0.35;;;15.00;99.90;;;;;;5056501;28;20049;-78
2022/05/17 01:28:43;;;;;;;0.00;0.00;;;14.90;99.90;;;;;;5039817;28;20069;-77
2022/05/17 01:31:09;;;;;;;0.20;0.03;;;14.90;99.90;;;;;;5039653;28;20065;-77
2022/05/17 01:33:37;;;;;;;0.00;0.00;;;14.90;99.90;;;;;;5056426;28;20064;-78
2022/05/17 01:36:05;;;;;;;0.00;0.00;;;14.90;99.90;;;;;;5039842;28;20045;-78
2022/05/17 01:38:31;;;;;;;0.00;0.00;;;14.90;99.90;;;;;;5056659;28;20124;-78
2022/05/17 01:40:57;;;;;;;0.70;0.25;;;14.90;99.90;;;;;;5039504;28;20092;-77
2022/05/17 01:43:23;;;;;;;5.38;0.22;;;14.90;99.90;;;;;;5056162;28;20134;-77
2022/05/17 01:45:49;;;;;;;0.00;0.00;;;14.90;99.90;;;;;;5039548;28;20485;-77
2022/05/17 01:48:14;;;;;;;0.00;0.00;;;14.90;99.90;;;;;;5055595;28;20110;-77
2022/05/17 01:50:40;;;;;;;0.00;0.00;;;14.80;99.90;;;;;;5055958;28;20131;-77
2022/05/17 01:53:06;;;;;;;0.08;0.08;;;14.80;99.90;;;;;;5056308;28;20049;-77
2022/05/17 01:55:32;;;;;;;0.00;0.00;;;14.70;99.90;;;;;;5056062;28;20041;-77
2022/05/17 01:57:58;;;;;;;0.47;0.47;;;14.80;99.90;;;;;;5039451;28;20060;-77
2022/05/17 02:00:24;;;;;;;0.35;0.25;;;14.70;99.90;;;;;;5055902;28;20049;-78
2022/05/17 02:02:51;;;;;;;0.10;0.10;;;14.70;99.90;;;;;;5055846;28;20045;-78
2022/05/17 02:05:18;;;;;;;0.00;0.00;;;14.60;99.90;;;;;;5039262;28;20051;-77
2022/05/17 02:07:44;;;;;;;0.00;0.00;;;14.60;99.90;;;;;;5038752;28;20461;-77
2022/05/17 02:10:11;;;;;;;0.00;0.00;;;14.70;99.90;;;;;;5055891;28;20439;-77
2022/05/17 02:12:37;;;;;;;0.00;0.00;;;14.60;99.90;;;;;;5038851;28;20056;-77
2022/05/17 02:15:07;;;;;;;0.00;0.00;;;14.60;99.90;;;;;;5055641;28;20099;-77
2022/05/17 02:17:35;;;;;;;0.00;0.00;;;14.60;99.90;;;;;;5038868;28;20052;-77
2022/05/17 02:20:02;;;;;;;0.73;0.10;;;14.50;99.90;;;;;;5039210;28;20084;-78
2022/05/17 02:22:28;;;;;;;0.00;0.00;;;14.50;99.90;;;;;;5038545;28;20080;-77
2022/05/17 02:24:53;;;;;;;0.00;0.00;;;14.50;99.90;;;;;;5055413;28;20095;-78
2022/05/17 02:27:19;;;;;;;0.30;0.30;;;14.50;99.90;;;;;;5053986;28;20075;-77
2022/05/17 02:29:45;;;;;;;0.00;0.00;;;14.50;99.90;;;;;;5038915;28;20041;-77
2022/05/17 02:32:12;;;;;;;0.00;0.00;;;14.50;99.90;;;;;;5055423;28;20107;-77
2022/05/17 02:34:39;;;;;;;0.00;0.00;;;14.50;99.90;;;;;;5038108;28;20111;-77
2022/05/17 02:37:05;;;;;;;0.10;0.10;;;14.50;99.90;;;;;;5037207;28;20041;-76
2022/05/17 02:39:31;;;;;;;1.95;0.43;;;14.50;99.90;;;;;;5052949;28;20043;-77
2022/05/17 02:41:56;;;;;;;0.30;0.22;;;14.40;99.90;;;;;;5037950;28;20492;-77
2022/05/17 02:44:22;;;;;;;0.00;0.00;;;14.40;99.90;;;;;;5055040;28;20396;-77
2022/05/17 02:46:48;;;;;;;0.10;0.00;;;14.40;99.90;;;;;;5038687;28;20041;-77
2022/05/17 02:49:13;;;;;;;0.00;0.00;;;14.30;99.90;;;;;;5054497;28;20551;-77
2022/05/17 02:51:39;;;;;;;0.28;0.28;;;14.40;99.90;;;;;;5054898;28;20191;-77
2022/05/17 02:54:07;;;;;;;0.00;0.00;;;14.40;99.90;;;;;;5054831;28;20061;-77
2022/05/17 02:56:33;;;;;;;0.00;0.00;;;14.40;99.90;;;;;;5055230;28;20495;-77
2022/05/17 02:58:59;;;;;;;0.30;0.30;;;14.30;99.90;;;;;;5054819;28;20037;-77
2022/05/17 03:01:25;;;;;;;0.00;0.00;;;14.40;99.90;;;;;;5054722;28;20473;-77
2022/05/17 03:03:50;;;;;;;1.23;0.52;;;14.30;99.90;;;;;;5038192;28;20048;-77
2022/05/17 03:06:16;;;;;;;0.43;0.15;;;14.30;99.90;;;;;;5054595;28;20137;-77
2022/05/17 03:08:42;;;;;;;2.35;0.40;;;14.20;99.90;;;;;;5054577;28;20459;-77
2022/05/17 03:11:08;;;;;;;0.05;0.00;;;14.20;99.90;;;;;;5054752;28;20385;-77
2022/05/17 03:13:35;;;;;;;0.00;0.00;;;14.20;99.90;;;;;;5054472;28;20056;-77
2022/05/17 03:16:01;;;;;;;0.00;0.00;;;14.10;99.90;;;;;;5054444;28;20059;-77
2022/05/17 03:18:27;;;;;;;0.00;0.00;;;14.10;99.90;;;;;;5037475;28;20393;-77
2022/05/17 03:20:52;;;;;;;0.00;0.00;;;14.20;99.90;;;;;;5038009;28;20053;-77
2022/05/17 03:23:18;;;;;;;0.10;0.10;;;14.10;99.90;;;;;;5054216;28;20049;-77
2022/05/17 03:25:44;;;;;;;0.00;0.00;;;14.10;99.90;;;;;;5054291;28;20041;-77
2022/05/17 03:28:12;;;;;;;0.00;0.00;;;14.10;99.90;;;;;;5053994;28;20093;-77
2022/05/17 03:30:39;;;;;;;0.28;0.28;;;14.00;99.90;;;;;;5054359;28;20044;-77
2022/05/17 03:33:04;;;;;;;0.00;0.00;;;14.00;99.90;;;;;;5054221;28;20075;-77
2022/05/17 03:35:30;;;;;;;0.00;0.00;;;14.00;99.90;;;;;;5054103;28;20504;-77
2022/05/17 03:37:56;;;;;;;0.45;0.30;;;14.00;99.90;;;;;;5037204;28;20037;-77
2022/05/17 03:40:21;;;;;;;0.00;0.00;;;14.00;99.90;;;;;;5054006;28;20045;-77
2022/05/17 03:42:47;;;;;;;0.85;0.38;;;14.00;99.90;;;;;;5037271;28;20056;-77
2022/05/17 03:45:13;;;;;;;0.63;0.25;;;13.90;99.90;;;;;;5053714;28;20047;-77
2022/05/17 03:47:39;;;;;;;1.38;0.57;;;14.00;99.90;;;;;;5053425;28;20408;-77
2022/05/17 03:50:07;;;;;;;0.30;0.30;;;13.90;99.90;;;;;;5037148;28;20049;-77
2022/05/17 03:52:32;;;;;;;0.00;0.00;;;13.90;99.90;;;;;;5053661;28;20484;-77
2022/05/17 03:54:59;;;;;;;0.00;0.00;;;13.90;99.90;;;;;;5053478;28;20051;-77
2022/05/17 03:57:27;;;;;;;0.20;0.20;;;13.90;99.90;;;;;;5053632;28;20036;-77
2022/05/17 03:59:53;;;;;;;0.15;0.15;;;13.90;99.90;;;;;;5053611;28;20041;-77
2022/05/17 04:02:19;;;;;;;0.00;0.00;;;13.90;99.90;;;;;;5037208;28;20485;-77
2022/05/17 04:04:45;;;;;;;0.00;0.00;;;13.90;99.90;;;;;;5053598;28;20048;-77
2022/05/17 04:07:11;;;;;;;0.10;0.10;;;13.90;99.90;;;;;;5036604;28;20045;-78
2022/05/17 04:09:37;;;;;;;0.00;0.00;;;13.90;99.90;;;;;;5037040;28;20061;-77
2022/05/17 04:12:03;;;;;;;1.23;0.63;;;13.90;99.90;;;;;;5036920;28;20404;-77
2022/05/17 04:14:30;;;;;;;0.00;0.00;;;13.90;99.90;;;;;;5053316;28;20052;-78
2022/05/17 04:16:55;;;;;;;0.05;0.05;;;13.90;99.90;;;;;;5053339;28;20504;-77
2022/05/17 04:19:21;;;;;;;0.00;0.00;;;13.90;99.90;;;;;;5053380;28;20048;-77
2022/05/17 04:21:47;;;;;;;0.20;0.13;;;14.00;99.90;;;;;;5036812;28;20059;-77
2022/05/17 04:24:14;;;;;;;0.10;0.10;;;14.00;99.90;;;;;;5052516;28;20049;-77
2022/05/17 04:26:40;;;;;;;1.95;0.38;;;14.00;99.90;;;;;;5052836;28;20045;-77
2022/05/17 04:29:07;;;;;;;0.00;0.00;;;14.10;99.90;;;;;;5053187;28;20044;-77
2022/05/17 04:31:33;;;;;;;0.00;0.00;;;14.10;99.90;;;;;;5053006;28;20075;-77
2022/05/17 04:33:59;;;;;;;0.63;0.22;;;14.10;99.90;;;;;;5036339;28;20056;-77
2022/05/17 04:36:25;;;;;;;0.00;0.00;;;14.10;99.90;;;;;;5052867;28;20515;-77
2022/05/17 04:38:52;;;;;;;0.10;0.10;;;14.20;99.90;;;;;;5052798;28;20053;-77
2022/05/17 04:41:18;;;;;;;0.10;0.00;;;14.20;99.90;;;;;;5036759;28;20049;-77
2022/05/17 04:43:44;;;;;;;0.00;0.00;;;14.20;99.90;;;;;;5036534;28;20057;-77
2022/05/17 04:46:10;;;;;;;0.00;0.00;;;14.30;99.90;;;;;;5052747;28;20037;-77
2022/05/17 04:48:36;;;;;;;0.00;0.00;;;14.30;99.90;;;;;;5052014;28;20481;-77
2022/05/17 04:51:10;;;;;;;0.05;0.00;;;14.30;99.90;;;;;;5052440;28;20132;-76
2022/05/17 04:53:38;;;;;;;0.00;0.00;;;14.30;99.90;;;;;;5053026;28;20052;-77
2022/05/17 04:56:05;;;;;;;0.00;0.00;;;14.40;99.90;;;;;;5052744;28;20084;-77
2022/05/17 04:58:30;;;;;;;0.00;0.00;;;14.40;99.90;;;;;;5052699;28;20088;-77
2022/05/17 05:00:56;;;;;;;0.22;0.22;;;14.50;99.90;;;;;;5036125;28;20095;-77
2022/05/17 05:03:22;;;;;;;0.00;0.00;;;14.50;99.90;;;;;;5035820;28;20065;-77
2022/05/17 05:05:48;;;;;;;0.00;0.00;;;14.50;99.90;;;;;;5035940;28;20072;-77
2022/05/17 05:08:14;;;;;;;0.00;0.00;;;14.60;99.90;;;;;;5052300;28;20048;-76
2022/05/17 05:10:42;;;;;;;0.00;0.00;;;14.60;99.90;;;;;;5035949;28;20048;-77
2022/05/17 05:13:13;;;;;;;0.00;0.00;;;14.70;99.90;;;;;;5052755;28;20056;-77
2022/05/17 05:15:39;;;;;;;0.00;0.00;;;14.70;99.90;;;;;;5036044;28;20048;-77
2022/05/17 05:18:05;;;;;;;0.00;0.00;;;14.80;99.90;;;;;;5052462;28;20049;-77
2022/05/17 05:20:31;;;;;;;0.68;0.55;;;14.80;99.90;;;;;;5052203;28;20408;-76
2022/05/17 05:22:56;;;;;;;0.00;0.00;;;14.90;99.90;;;;;;5052472;28;20053;-77
2022/05/17 05:25:22;;;;;;;0.00;0.00;;;14.90;99.90;;;;;;5035464;28;20419;-77
2022/05/17 05:27:48;;;;;;;0.98;0.30;;;15.00;99.90;;;;;;5051285;28;20049;-77
2022/05/17 05:30:16;;;;;;;0.22;0.22;;;15.10;99.90;;;;;;5052300;28;20036;-77
2022/05/17 05:32:42;;;;;;;0.00;0.00;;;15.10;99.90;;;;;;5045559;28;20041;-76
2022/05/17 05:35:08;;;;;;;0.00;0.00;;;15.20;99.90;;;;;;5052536;28;20049;-77
2022/05/17 05:37:33;;;;;;;0.10;0.00;;;15.40;99.90;;;;;;5072157;28;20504;-77
2022/05/17 05:39:59;;;;;;;0.00;0.00;;;15.60;99.90;;;;;;5072484;28;20036;-77
2022/05/17 05:42:25;;;;;;;0.00;0.00;;;15.70;99.90;;;;;;5072205;28;20472;-77
2022/05/17 05:44:50;;;;;;;0.00;0.00;;;15.80;99.90;;;;;;5055486;28;20135;-76
2022/05/17 05:47:16;;;;;;;0.32;0.10;;;15.90;99.90;;;;;;5071482;28;20071;-77
2022/05/17 05:49:42;;;;;;;0.08;0.00;;;15.90;99.90;;;;;;5071894;28;20400;-77
2022/05/17 05:52:08;;;;;;;0.00;0.00;;;16.00;99.90;;;;;;5055443;28;20052;-77
2022/05/17 05:54:33;;;;;;;0.10;0.10;;;16.00;99.90;;;;;;5055470;28;20135;-77
2022/05/17 05:57:02;;;;;;;0.00;0.00;;;16.10;99.90;;;;;;5055372;28;20053;-76
2022/05/17 05:59:29;;;;;;;0.00;0.00;;;16.10;99.90;;;;;;5072075;28;20076;-77
2022/05/17 06:01:55;;;;;;;0.00;0.00;;;16.20;99.90;;;;;;5075308;28;20126;-77
2022/05/17 06:04:21;;;;;;;0.00;0.00;;;16.20;99.90;;;;;;5059119;28;20060;-77
2022/05/17 06:06:47;;;;;;;0.00;0.00;;;16.20;99.90;;;;;;5059128;28;20087;-77
2022/05/17 06:09:13;;;;;;;3.65;0.20;;;16.20;99.90;;;;;;5058890;28;20045;-77
2022/05/17 06:11:38;;;;;;;0.00;0.00;;;16.20;99.90;;;;;;5075751;28;20044;-77
2022/05/17 06:14:04;;;;;;;0.00;0.00;;;16.20;99.90;;;;;;5058926;28;20053;-77
2022/05/17 06:16:30;;;;;;;0.10;0.00;;;16.20;99.90;;;;;;5058774;28;20048;-77
2022/05/17 06:18:55;;;;;;;2.83;0.00;;;16.10;99.90;;;;;;5058893;28;20052;-77
2022/05/17 06:21:21;;;;;;;0.17;0.17;;;16.20;99.90;;;;;;5058991;28;20041;-77
2022/05/17 06:23:47;;;;;;;3.20;0.63;;;16.20;99.90;;;;;;5059053;28;20500;-77
2022/05/17 06:26:12;;;;;;;0.17;0.10;;;16.30;99.90;;;;;;5058572;28;20064;-77
2022/05/17 06:28:38;;;;;;;0.00;0.00;;;16.30;99.90;;;;;;5075382;28;20045;-77
2022/05/17 06:31:04;;;;;;;0.00;0.00;;;16.30;99.90;;;;;;5075247;28;20052;-77
2022/05/17 06:33:29;;;;;;;2.08;0.65;;;16.40;99.90;;;;;;5074421;28;20052;-78
2022/05/17 06:35:56;;;;;;;0.00;0.00;;;16.50;99.90;;;;;;5058322;28;20059;-77
2022/05/17 06:38:22;;;;;;;0.08;0.00;;;16.50;99.90;;;;;;5075521;28;20044;-77
2022/05/17 06:40:48;;;;;;;0.98;0.55;;;16.60;99.90;;;;;;5075264;28;20399;-77
2022/05/17 06:43:13;;;;;;;0.03;0.00;;;16.60;99.90;;;;;;5075081;28;20040;-77
2022/05/17 06:45:39;;;;;;;2.30;0.73;;;16.70;99.90;;;;;;5074783;28;20059;-77
2022/05/17 06:48:06;;;;;;;3.10;0.47;;;16.70;99.90;;;;;;5074564;28;20071;-77
2022/05/17 06:50:32;;;;;;;0.00;0.00;;;16.70;99.90;;;;;;5058122;28;20395;-77
2022/05/17 06:52:59;;;;;;;0.00;0.00;;;16.80;99.90;;;;;;5075088;28;20427;-77
2022/05/17 06:55:25;;;;;;;0.00;0.00;;;16.90;99.90;;;;;;5075127;28;20078;-77
2022/05/17 06:57:51;;;;;;;0.10;0.00;;;17.00;99.90;;;;;;5074923;28;20045;-77
2022/05/17 07:00:19;;;;;;;0.13;0.13;;;17.00;99.90;;;;;;5074486;28;20052;-77
2022/05/17 07:02:45;;;;;;;0.30;0.10;;;17.20;99.90;;;;;;5074722;28;20040;-77
2022/05/17 07:05:11;;;;;;;0.08;0.08;;;17.30;99.90;;;;;;5074747;28;20033;-77
2022/05/17 07:07:37;;;;;;;0.00;0.00;;;17.40;99.90;;;;;;5074527;28;20052;-77
2022/05/17 07:15:32;;;;;;;0.00;0.00;;;17.80;99.90;;;;;;5074636;28;20328;-77
2022/05/17 07:18:01;;;;;;;0.00;0.00;;;17.80;99.90;;;;;;5057903;28;20083;-77
2022/05/17 07:20:28;;;;;;;0.03;0.00;;;17.90;99.90;;;;;;5074653;28;20080;-77
2022/05/17 07:22:54;;;;;;;0.00;0.00;;;18.10;99.90;;;;;;5074324;28;20048;-77
2022/05/17 07:25:20;;;;;;;0.57;0.57;;;18.30;99.90;;;;;;5058587;28;20099;-77
2022/05/17 07:27:46;;;;;;;2.75;1.10;;;18.40;99.90;;;;;;5057354;28;20114;-77
2022/05/17 07:30:12;;;;;;;0.00;0.00;;;18.40;99.90;;;;;;5057578;28;20044;-77
2022/05/17 07:32:38;;;;;;;0.85;0.68;;;18.50;99.90;;;;;;5074111;28;20488;-77
2022/05/17 07:35:04;;;;;;;0.00;0.00;;;18.60;99.90;;;;;;5074140;28;20048;-77
2022/05/17 07:37:30;;;;;;;3.75;0.60;;;18.60;99.90;;;;;;5057364;28;20067;-77
2022/05/17 07:39:56;;;;;;;0.55;0.47;;;18.80;99.90;;;;;;5057107;28;20476;-77
2022/05/17 07:42:21;;;;;;;0.00;0.00;;;18.90;99.90;;;;;;5057556;28;20048;-76
2022/05/17 07:44:47;;;;;;;0.00;0.00;;;19.00;99.90;;;;;;5057425;28;20041;-77
2022/05/17 07:47:12;;;;;;;0.17;0.17;;;19.00;99.90;;;;;;5056670;28;20083;-76
2022/05/17 07:49:38;;;;;;;0.70;0.20;;;19.10;99.90;;;;;;5073996;28;20052;-77
2022/05/17 07:52:05;;;;;;;0.00;0.00;;;19.20;99.90;;;;;;5073669;28;20117;-77
2022/05/17 07:54:31;;;;;;;0.20;0.20;;;19.20;99.90;;;;;;5074555;28;20110;-77
2022/05/17 07:56:57;;;;;;;0.00;0.00;;;19.30;99.90;;;;;;5073401;28;20048;-77
2022/05/17 07:59:23;;;;;;;0.22;0.22;;;19.50;99.90;;;;;;5073790;28;20040;-77
2022/05/17 08:01:48;;;;;;;0.77;0.20;;;19.60;99.90;;;;;;5073574;28;20051;-77
2022/05/17 08:04:14;;;;;;;0.00;0.00;;;19.70;99.90;;;;;;5073730;28;20044;-77
2022/05/17 08:06:40;;;;;;;0.00;0.00;;;19.60;99.90;;;;;;5073000;28;20087;-76
2022/05/17 08:09:06;;;;;;;0.43;0.20;;;19.70;99.90;;;;;;5073421;28;20048;-77
2022/05/17 08:11:31;;;;;;;0.35;0.22;;;19.70;99.90;;;;;;5073604;28;20117;-77
2022/05/17 08:13:58;;;;;;;0.13;0.13;;;19.70;99.90;;;;;;5073531;28;20087;-77
2022/05/17 08:16:23;;;;;;;0.10;0.10;;;19.70;99.90;;;;;;5056642;28;20044;-77
2022/05/17 08:18:49;;;;;;;0.10;0.10;;;19.80;99.90;;;;;;5056674;28;20052;-77
2022/05/17 08:21:15;;;;;;;0.00;0.00;;;19.90;99.90;;;;;;5073204;28;20091;-77
2022/05/17 08:23:40;;;;;;;0.00;0.00;;;20.00;99.90;;;;;;5072506;28;20041;-77
2022/05/17 08:28:51;;;;;;;0.00;0.00;;;20.20;99.90;;;;;;5073545;28;20047;-77
2022/05/17 08:31:17;;;;;;;5.32;0.57;;;20.30;99.90;;;;;;5073024;28;20048;-77
2022/05/17 08:33:42;;;;;;;0.10;0.00;;;20.40;99.90;;;;;;5056136;28;20047;-78
2022/05/17 08:36:10;;;;;;;0.15;0.00;;;20.60;99.90;;;;;;5072054;28;20094;-78
2022/05/17 08:38:43;;;;;;;0.10;0.08;;;20.70;99.90;;;;;;5072636;28;20048;-78
2022/05/17 08:41:38;;;;;;;0.10;0.10;;;20.70;99.90;;;;;;5056008;28;20083;-77
2022/05/17 08:44:09;;;;;;;0.10;0.10;;;20.80;99.90;;;;;;5072820;28;20050;-77
2022/05/17 08:47:11;;;;;;;0.00;0.00;;;20.80;99.90;;;;;;5072719;28;20102;-78
2022/05/17 08:49:53;;;;;;;0.00;0.00;;;20.90;99.90;;;;;;5072210;28;20053;-78
2022/05/17 08:52:22;;;;;;;0.00;0.00;;;21.00;99.90;;;;;;5056229;28;20126;-77
2022/05/17 08:55:02;;;;;;;3.20;0.43;;;21.00;99.90;;;;;;5056034;28;20059;-78
2022/05/17 08:57:30;;;;;;;0.55;0.13;;;21.00;99.90;;;;;;5073299;28;20053;-78
2022/05/17 09:00:23;;;;;;;0.08;0.08;;;21.10;99.90;;;;;;5055923;28;20056;-78
2022/05/17 09:03:01;;;;;;;0.00;0.00;;;21.20;99.90;;;;;;5072187;28;20062;-78
2022/05/17 09:05:54;;;;;;;2.83;0.45;;;21.30;99.90;;;;;;5056730;28;20452;-78
2022/05/17 09:08:38;;;;;;;2.72;0.47;;;21.40;99.90;;;;;;5072545;28;20048;-78
2022/05/17 09:11:21;;;;;;;0.00;0.00;;;21.60;99.90;;;;;;5055735;28;20504;-78
2022/05/17 09:14:14;;;;;;;0.52;0.28;;;21.70;99.90;;;;;;5073237;28;20044;-78
2022/05/17 09:16:45;;;;;;;1.20;0.35;;;21.90;99.90;;;;;;5072752;28;20135;-78
2022/05/17 09:19:12;;;;;;;1.08;0.28;;;22.10;99.90;;;;;;5055959;28;20041;-78
2022/05/17 09:21:41;;;;;;;0.00;0.00;;;22.10;99.90;;;;;;5055680;28;20056;-79
2022/05/17 09:24:12;;;;;;;1.85;0.57;;;22.30;99.90;;;;;;5072529;28;20052;-78
2022/05/17 09:26:45;;;;;;;0.55;0.10;;;22.20;99.10;;;;;;5055758;28;20052;-78
2022/05/17 09:29:33;;;;;;;0.20;0.10;;;22.20;98.90;;;;;;5072461;28;20041;-78
2022/05/17 09:32:07;;;;;;;0.00;0.00;;;22.30;99.50;;;;;;5071791;28;20459;-77
2022/05/17 09:34:40;;;;;;;0.00;0.00;;;22.40;99.30;;;;;;5054660;28;20186;-77
2022/05/17 09:37:15;;;;;;;0.00;0.00;;;22.40;98.10;;;;;;5075060;28;20049;-77
2022/05/17 09:39:47;;;;;;;0.00;0.00;;;22.40;97.00;;;;;;5075222;28;20080;-77
2022/05/17 09:42:33;;;;;;;0.10;0.10;;;22.50;97.80;;;;;;5058479;28;20050;-77
2022/05/17 09:45:14;;;;;;;0.00;0.00;;;22.40;96.70;;;;;;5058419;28;20048;-77
2022/05/17 09:47:58;;;;;;;0.00;0.00;;;22.30;96.90;;;;;;5075381;28;20413;-77
2022/05/17 09:53:14;;;;;;;0.00;0.00;;;22.80;97.20;;;;;;5075848;28;20099;-78
2022/05/17 09:55:43;;;;;;;0.00;0.00;;;23.00;94.60;;;;;;5059321;28;20052;-77
2022/05/17 09:58:11;;;;;;;0.10;0.03;;;23.00;94.60;;;;;;5076413;28;20134;-77
2022/05/17 10:00:42;;;;;;;1.95;0.63;;;22.90;94.60;;;;;;5075876;28;20082;-78
2022/05/17 10:03:34;;;;;;;0.17;0.17;;;22.70;94.20;;;;;;5075565;28;20564;-78
2022/05/17 10:06:12;;;;;;;0.00;0.00;;;22.60;94.90;;;;;;5076001;28;20048;-77
2022/05/17 10:08:43;;;;;;;0.00;0.00;;;22.50;94.70;;;;;;5075610;28;20184;-78
2022/05/17 10:11:15;;;;;;;0.43;0.13;;;22.50;94.80;;;;;;5075749;28;20052;-78
2022/05/17 10:13:46;;;;;;;0.00;0.00;;;22.40;95.30;;;;;;5075765;28;20489;-77
2022/05/17 10:16:23;;;;;;;1.65;0.30;;;22.50;95.40;;;;;;5075922;28;20086;-78
2022/05/17 10:19:03;;;;;;;0.00;0.00;;;22.50;95.90;;;;;;5075648;28;20060;-78
2022/05/17 10:21:53;;;;;;;0.10;0.10;;;22.60;95.70;;;;;;5075888;28;20041;-78
2022/05/17 10:24:24;;;;;;;0.70;0.10;;;22.70;96.00;;;;;;5058798;28;20091;-78
2022/05/17 10:26:59;;;;;;;0.00;0.00;;;22.70;95.40;;;;;;5076018;28;20067;-78
2022/05/17 10:29:55;;;;;;;0.90;0.20;;;22.70;95.10;;;;;;5058775;28;20095;-78
2022/05/17 10:32:32;;;;;;;0.00;0.00;;;22.60;95.60;;;;;;5021445;28;20061;-78
2022/05/17 10:35:02;;;;;;;1.15;0.68;;;22.50;94.40;;;;;;5037519;28;20045;-78
2022/05/17 10:37:38;;;;;;;0.00;0.00;;;22.40;95.40;;;;;;5038000;28;20048;-77
2022/05/17 10:40:11;;;;;;;0.00;0.00;;;22.30;95.10;;;;;;5038023;28;20044;-77
2022/05/17 10:42:38;;;;;;;0.10;0.10;;;22.20;96.60;;;;;;5020994;28;20147;-77
2022/05/17 10:45:05;;;;;;;0.03;0.03;;;22.10;96.40;;;;;;5037249;28;20062;-77
2022/05/17 10:47:52;;;;;;;0.00;0.00;;;22.00;97.00;;;;;;5019314;28;20117;-77
2022/05/17 10:50:40;;;;;;;0.08;0.08;;;22.00;97.50;;;;;;5037776;28;20053;-77
2022/05/17 10:53:28;;;;;;;0.55;0.22;;;21.90;98.00;;;;;;5037985;28;20045;-77
2022/05/17 10:56:27;;;;;;;0.70;0.20;;;21.90;98.30;;;;;;5037288;28;20148;-77
2022/05/17 10:59:26;;;;;;;0.25;0.10;;;21.90;99.60;;;;;;5037412;28;20052;-77
2022/05/17 11:02:19;;;;;;;0.00;0.00;;;21.80;99.30;;;;;;5037222;28;20053;-77
2022/05/17 11:05:15;;;;;;;0.03;0.03;;;22.00;99.70;;;;;;5037287;28;20044;-77
2022/05/17 11:07:53;;;;;;;0.30;0.13;;;22.10;99.40;;;;;;5037955;28;20044;-76
2022/05/17 11:10:27;;;;;;;0.22;0.22;;;22.20;99.30;;;;;;5058270;28;20048;-77
2022/05/17 11:13:03;;;;;;;0.00;0.00;;;22.40;99.40;;;;;;5074638;28;20048;-77
2022/05/17 11:15:35;;;;;;;0.05;0.03;;;22.40;98.50;;;;;;5074743;28;20127;-77
2022/05/17 11:18:14;;;;;;;0.03;0.00;;;22.30;98.70;;;;;;5058066;28;20048;-78
2022/05/17 11:20:58;;;;;;;0.00;0.00;;;22.20;98.40;;;;;;5074594;28;20094;-77
2022/05/17 11:23:45;;;;;;;0.00;0.00;;;22.20;99.00;;;;;;5057655;28;20086;-77
2022/05/17 11:26:50;;;;;;;2.50;0.55;;;22.00;97.70;;;;;;5057131;28;20067;-77
2022/05/17 11:29:31;;;;;;;0.05;0.03;;;21.90;98.10;;;;;;5058271;28;20110;-77
2022/05/17 11:32:17;;;;;;;0.00;0.00;;;21.90;98.40;;;;;;5057729;28;20052;-77
2022/05/17 11:34:45;;;;;;;0.10;0.10;;;21.90;97.90;;;;;;5057501;28;20080;-77
2022/05/17 11:37:32;;;;;;;0.00;0.00;;;22.00;97.20;;;;;;5073967;28;20052;-77
2022/05/17 11:40:08;;;;;;;0.05;0.03;;;21.90;97.50;;;;;;5073975;28;20041;-77
2022/05/17 11:42:35;;;;;;;0.00;0.00;;;21.80;97.10;;;;;;5074137;28;20049;-77
2022/05/17 11:45:39;;;;;;;0.10;0.05;;;21.80;97.70;;;;;;5073954;28;20511;-78
2022/05/17 11:48:14;;;;;;;0.10;0.10;;;21.80;98.20;;;;;;5057009;28;20056;-77
2022/05/17 11:50:41;;;;;;;;;;;21.80;97.80;;;;;;5057475;28;20099;-77
2022/05/17 11:53:25;;;;;;;1.25;0.10;;;21.90;98.70;;;;;;5073526;28;19928;-78
2022/05/17 11:56:25;;;;;;;0.00;0.00;;;22.00;98.00;;;;;;5056993;28;20054;-77
2022/05/17 11:58:52;;;;;;;0.00;0.00;;;22.10;98.40;;;;;;5036000;28;20088;-78
2022/05/17 12:01:30;;;;;;;0.20;0.20;;;22.30;98.30;;;;;;5036123;28;20162;-78
2022/05/17 12:04:20;;;;;;;1.45;0.50;;;22.30;98.20;;;;;;5036107;28;20378;-78
2022/05/17 12:06:48;;;;;;;0.00;0.00;;;22.30;98.30;;;;;;5035960;28;20041;-77
2022/05/17 12:09:23;;;;;;;0.68;0.55;;;22.30;98.50;;;;;;5035906;28;20057;-77
2022/05/17 12:12:08;;;;;;;0.08;0.08;;;22.20;97.90;;;;;;5036116;28;20135;-77
2022/05/17 12:15:06;;;;;;;0.10;0.03;;;22.10;97.60;;;;;;5036062;28;20087;-78
2022/05/17 12:17:44;;;;;;;0.25;0.22;;;22.00;98.20;;;;;;5035867;28;20103;-77
2022/05/17 12:20:28;;;;;;;0.00;0.00;;;21.90;98.10;;;;;;5035745;28;20080;-77
2022/05/17 12:22:57;;;;;;;;;;;21.80;98.50;;;;;;5036067;28;20064;-77
2022/05/17 12:25:34;;;;;;;5.72;0.75;;;21.90;98.20;;;;;;5035307;28;19921;-77
2022/05/17 12:28:01;;;;;;;0.00;0.00;;;21.90;98.70;;;;;;5019104;28;20436;-77
2022/05/17 12:33:30;;;;;;;0.00;0.00;;;21.90;98.30;;;;;;5035504;28;20528;-77
2022/05/17 12:36:18;;;;;;;0.00;0.00;;;22.00;98.70;;;;;;5039903;28;20057;-77
2022/05/17 12:44:47;;;;;;;0.15;0.15;;;22.00;98.60;;;;;;5072913;28;20143;-76
2022/05/17 12:47:18;;;;;;;0.20;0.10;;;21.80;97.60;;;;;;5055835;28;20044;-77
2022/05/17 12:49:50;;;;;;;0.00;0.00;;;21.70;97.60;;;;;;5056280;28;20109;-77
2022/05/17 12:52:24;;;;;;;0.10;0.10;;;21.70;97.50;;;;;;5072704;28;20048;-76
2022/05/17 12:54:50;;;;;;;0.00;0.00;;;21.50;97.00;;;;;;5072816;28;20472;-77
2022/05/17 12:57:30;;;;;;;0.00;0.00;;;21.50;97.20;;;;;;5056225;28;20503;-77
2022/05/17 13:00:22;;;;;;;0.20;0.20;;;21.40;97.80;;;;;;5072781;28;20045;-76
2022/05/17 13:02:51;;;;;;;0.00;0.00;;;21.50;98.10;;;;;;5072962;28;20051;-77
2022/05/17 13:05:29;;;;;;;0.00;0.00;;;21.50;97.50;;;;;;5072679;28;20056;-77
2022/05/17 13:07:59;;;;;;;0.00;0.00;;;21.70;97.00;;;;;;5072692;28;20044;-77
2022/05/17 13:10:25;;;;;;;0.00;0.00;;;21.80;97.10;;;;;;5056012;28;20056;-77
2022/05/17 13:12:51;;;;;;;0.00;0.00;;;22.20;96.40;;;;;;5072604;28;20083;-76
2022/05/17 13:15:17;;;;;;;0.05;0.00;;;22.60;97.00;;;;;;5073012;28;20138;-77
2022/05/17 13:17:45;;;;;;;0.57;0.35;;;22.90;95.80;;;;;;5056036;28;20174;-76
2022/05/17 13:20:13;;;;;;;0.00;0.00;;;23.10;94.00;;;;;;5055899;28;20048;-77
2022/05/17 13:22:42;;;;;;;0.00;0.00;;;23.40;94.50;;;;;;5055842;28;20134;-77
2022/05/17 13:25:13;;;;;;;0.00;0.00;;;23.60;93.40;;;;;;5072652;28;20047;-77
2022/05/17 13:27:46;;;;;;;1.65;0.35;;;23.70;93.30;;;;;;5055600;28;20041;-77